sensor_id;sensor_type;location;lat;lon;timestamp;temperature;humidity
13186;DHT22;6658;53.080;7.428;2023-08-21T00:00:55;15.40;99.90
13186;DHT22;6658;53.080;7.428;2023-08-21T00:03:22;15.40;99.90
13186;DHT22;6658;53.080;7.428;2023-08-21T00:05:47;15.50;99.90
13186;DHT22;6658;53.080;7.428;2023-08-21T00:08:13;15.50;99.90
13186;DHT22;6658;53.080;7.428;2023-08-21T00:10:39;15.50;99.90
13186;DHT22;6658;53.080;7.428;2023-08-21T00:13:06;15.50;99.90
13186;DHT22;6658;53.080;7.428;2023-08-21T00:15:32;15.50;99.90
13186;DHT22;6658;53.080;7.428;2023-08-21T00:17:58;15.50;99.90
13186;DHT22;6658;53.080;7.428;2023-08-21T00:20:26;15.40;99.90
13186;DHT22;6658;53.080;7.428;2023-08-21T00:22:52;15.40;99.90
13186;DHT22;6658;53.080;7.428;2023-08-21T00:25:17;15.40;99.90
13186;DHT22;6658;53.080;7.428;2023-08-21T00:27:43;15.40;99.90
13186;DHT22;6658;53.080;7.428;2023-08-21T00:30:09;15.30;99.90
13186;DHT22;6658;53.080;7.428;2023-08-21T00:32:35;15.30;99.90
13186;DHT22;6658;53.080;7.428;2023-08-21T00:35:01;15.20;99.90
13186;DHT22;6658;53.080;7.428;2023-08-21T00:37:26;15.20;99.90
13186;DHT22;6658;53.080;7.428;2023-08-21T00:39:52;15.20;99.90
13186;DHT22;6658;53.080;7.428;2023-08-21T00:42:18;15.20;99.90
13186;DHT22;6658;53.080;7.428;2023-08-21T00:44:43;15.30;99.90
13186;DHT22;6658;53.080;7.428;2023-08-21T00:47:09;15.30;99.90
13186;DHT22;6658;53.080;7.428;2023-08-21T00:49:35;15.30;99.90
13186;DHT22;6658;53.080;7.428;2023-08-21T00:52:01;15.40;99.90
13186;DHT22;6658;53.080;7.428;2023-08-21T00:54:27;15.40;99.90
13186;DHT22;6658;53.080;7.428;2023-08-21T00:56:53;15.40;99.90
13186;DHT22;6658;53.080;7.428;2023-08-21T00:59:22;15.50;99.90
13186;DHT22;6658;53.080;7.428;2023-08-21T01:01:48;15.50;99.90
13186;DHT22;6658;53.080;7.428;2023-08-21T01:04:13;15.60;99.90
13186;DHT22;6658;53.080;7.428;2023-08-21T01:06:39;15.60;99.90
13186;DHT22;6658;53.080;7.428;2023-08-21T01:09:14;15.60;99.90
13186;DHT22;6658;53.080;7.428;2023-08-21T01:12:01;15.60;99.90
13186;DHT22;6658;53.080;7.428;2023-08-21T01:14:43;15.50;99.90
13186;DHT22;6658;53.080;7.428;2023-08-21T01:17:10;15.50;99.90
13186;DHT22;6658;53.080;7.428;2023-08-21T01:19:41;15.40;99.90
13186;DHT22;6658;53.080;7.428;2023-08-21T01:22:07;15.40;99.90
13186;DHT22;6658;53.080;7.428;2023-08-21T01:24:34;15.40;99.90
13186;DHT22;6658;53.080;7.428;2023-08-21T01:27:00;15.40;99.90
13186;DHT22;6658;53.080;7.428;2023-08-21T01:29:26;15.30;99.90
13186;DHT22;6658;53.080;7.428;2023-08-21T01:32:26;15.20;99.90
13186;DHT22;6658;53.080;7.428;2023-08-21T01:34:55;15.10;99.90
13186;DHT22;6658;53.080;7.428;2023-08-21T01:37:22;15.00;99.90
13186;DHT22;6658;53.080;7.428;2023-08-21T01:39:49;14.90;99.90
13186;DHT22;6658;53.080;7.428;2023-08-21T01:42:14;14.90;99.90
13186;DHT22;6658;53.080;7.428;2023-08-21T01:44:40;14.90;99.90
13186;DHT22;6658;53.080;7.428;2023-08-21T01:47:06;14.90;99.90
13186;DHT22;6658;53.080;7.428;2023-08-21T01:49:32;14.90;99.90
13186;DHT22;6658;53.080;7.428;2023-08-21T01:51:57;14.80;99.90
13186;DHT22;6658;53.080;7.428;2023-08-21T01:54:23;14.80;99.90
13186;DHT22;6658;53.080;7.428;2023-08-21T01:56:49;14.80;99.90
13186;DHT22;6658;53.080;7.428;2023-08-21T01:59:16;14.80;99.90
13186;DHT22;6658;53.080;7.428;2023-08-21T02:01:42;14.80;99.90
13186;DHT22;6658;53.080;7.428;2023-08-21T02:04:08;14.70;99.90
13186;DHT22;6658;53.080;7.428;2023-08-21T02:06:33;14.60;99.90
13186;DHT22;6658;53.080;7.428;2023-08-21T02:08:59;14.60;99.90
13186;DHT22;6658;53.080;7.428;2023-08-21T02:11:25;14.60;99.90
13186;DHT22;6658;53.080;7.428;2023-08-21T02:13:50;14.70;99.90
13186;DHT22;6658;53.080;7.428;2023-08-21T02:16:16;14.70;99.90
13186;DHT22;6658;53.080;7.428;2023-08-21T02:18:42;14.70;99.90
13186;DHT22;6658;53.080;7.428;2023-08-21T02:21:07;14.60;99.90
13186;DHT22;6658;53.080;7.428;2023-08-21T02:23:33;14.50;99.90
13186;DHT22;6658;53.080;7.428;2023-08-21T02:25:59;14.50;99.90
13186;DHT22;6658;53.080;7.428;2023-08-21T02:28:24;14.40;99.90
13186;DHT22;6658;53.080;7.428;2023-08-21T02:30:50;14.40;99.90
13186;DHT22;6658;53.080;7.428;2023-08-21T02:33:16;14.40;99.90
13186;DHT22;6658;53.080;7.428;2023-08-21T02:35:41;14.30;99.90
13186;DHT22;6658;53.080;7.428;2023-08-21T02:38:07;14.30;99.90
13186;DHT22;6658;53.080;7.428;2023-08-21T02:40:33;14.30;99.90
13186;DHT22;6658;53.080;7.428;2023-08-21T02:42:58;14.30;99.90
13186;DHT22;6658;53.080;7.428;2023-08-21T02:45:24;14.20;99.90
13186;DHT22;6658;53.080;7.428;2023-08-21T02:47:51;14.20;99.90
13186;DHT22;6658;53.080;7.428;2023-08-21T02:50:16;14.20;99.90
13186;DHT22;6658;53.080;7.428;2023-08-21T02:52:42;14.10;99.90
13186;DHT22;6658;53.080;7.428;2023-08-21T02:55:08;14.10;99.90
13186;DHT22;6658;53.080;7.428;2023-08-21T02:57:34;14.10;99.90
13186;DHT22;6658;53.080;7.428;2023-08-21T02:59:59;14.00;99.90
13186;DHT22;6658;53.080;7.428;2023-08-21T03:02:25;14.00;99.90
13186;DHT22;6658;53.080;7.428;2023-08-21T03:04:51;14.10;99.90
13186;DHT22;6658;53.080;7.428;2023-08-21T03:07:19;14.20;99.90
13186;DHT22;6658;53.080;7.428;2023-08-21T03:09:46;14.20;99.90
13186;DHT22;6658;53.080;7.428;2023-08-21T03:12:14;14.20;99.90
13186;DHT22;6658;53.080;7.428;2023-08-21T03:14:40;14.20;99.90
13186;DHT22;6658;53.080;7.428;2023-08-21T03:17:06;14.20;99.90
13186;DHT22;6658;53.080;7.428;2023-08-21T03:19:32;14.10;99.90
13186;DHT22;6658;53.080;7.428;2023-08-21T03:21:58;14.10;99.90
13186;DHT22;6658;53.080;7.428;2023-08-21T03:24:23;14.00;99.90
13186;DHT22;6658;53.080;7.428;2023-08-21T03:26:49;14.00;99.90
13186;DHT22;6658;53.080;7.428;2023-08-21T03:29:15;13.90;99.90
13186;DHT22;6658;53.080;7.428;2023-08-21T03:31:41;13.80;99.90
13186;DHT22;6658;53.080;7.428;2023-08-21T03:34:07;13.80;99.90
13186;DHT22;6658;53.080;7.428;2023-08-21T03:36:34;13.70;99.90
13186;DHT22;6658;53.080;7.428;2023-08-21T03:39:02;13.70;99.90
13186;DHT22;6658;53.080;7.428;2023-08-21T03:41:29;13.70;99.90
13186;DHT22;6658;53.080;7.428;2023-08-21T03:43:55;13.60;99.90
13186;DHT22;6658;53.080;7.428;2023-08-21T03:46:20;13.60;99.90
13186;DHT22;6658;53.080;7.428;2023-08-21T03:48:46;13.60;99.90
13186;DHT22;6658;53.080;7.428;2023-08-21T03:51:12;13.60;99.90
13186;DHT22;6658;53.080;7.428;2023-08-21T03:53:38;13.50;99.90
13186;DHT22;6658;53.080;7.428;2023-08-21T03:56:03;13.50;99.90
13186;DHT22;6658;53.080;7.428;2023-08-21T03:58:29;13.60;99.90
13186;DHT22;6658;53.080;7.428;2023-08-21T04:00:55;13.70;99.90
13186;DHT22;6658;53.080;7.428;2023-08-21T04:03:21;13.70;99.90
13186;DHT22;6658;53.080;7.428;2023-08-21T04:05:47;13.70;99.90
13186;DHT22;6658;53.080;7.428;2023-08-21T04:08:13;13.60;99.90
13186;DHT22;6658;53.080;7.428;2023-08-21T04:10:39;13.50;99.90
13186;DHT22;6658;53.080;7.428;2023-08-21T04:13:05;13.50;99.90
13186;DHT22;6658;53.080;7.428;2023-08-21T04:15:31;13.40;99.90
13186;DHT22;6658;53.080;7.428;2023-08-21T04:17:57;13.40;99.90
13186;DHT22;6658;53.080;7.428;2023-08-21T04:20:23;13.40;99.90
13186;DHT22;6658;53.080;7.428;2023-08-21T04:22:49;13.40;99.90
13186;DHT22;6658;53.080;7.428;2023-08-21T04:25:15;13.40;99.90
13186;DHT22;6658;53.080;7.428;2023-08-21T04:27:42;13.40;99.90
13186;DHT22;6658;53.080;7.428;2023-08-21T04:30:08;13.40;99.90
13186;DHT22;6658;53.080;7.428;2023-08-21T04:32:35;13.40;99.90
13186;DHT22;6658;53.080;7.428;2023-08-21T04:35:00;13.50;99.90
13186;DHT22;6658;53.080;7.428;2023-08-21T04:37:26;13.50;99.90
13186;DHT22;6658;53.080;7.428;2023-08-21T04:39:53;13.50;99.90
13186;DHT22;6658;53.080;7.428;2023-08-21T04:42:19;13.50;99.90
13186;DHT22;6658;53.080;7.428;2023-08-21T04:44:45;13.50;99.90
13186;DHT22;6658;53.080;7.428;2023-08-21T04:47:22;13.50;99.90
13186;DHT22;6658;53.080;7.428;2023-08-21T04:49:52;13.50;99.90
13186;DHT22;6658;53.080;7.428;2023-08-21T04:52:21;13.60;99.90
13186;DHT22;6658;53.080;7.428;2023-08-21T04:54:48;13.60;99.90
13186;DHT22;6658;53.080;7.428;2023-08-21T04:57:14;13.80;99.90
13186;DHT22;6658;53.080;7.428;2023-08-21T04:59:40;14.10;99.90
13186;DHT22;6658;53.080;7.428;2023-08-21T05:02:06;14.40;99.90
13186;DHT22;6658;53.080;7.428;2023-08-21T05:04:32;14.70;99.90
13186;DHT22;6658;53.080;7.428;2023-08-21T05:06:58;15.10;99.90
13186;DHT22;6658;53.080;7.428;2023-08-21T05:09:24;15.50;99.90
13186;DHT22;6658;53.080;7.428;2023-08-21T05:11:49;15.70;99.90
13186;DHT22;6658;53.080;7.428;2023-08-21T05:14:15;15.80;99.90
13186;DHT22;6658;53.080;7.428;2023-08-21T05:16:41;15.80;99.90
13186;DHT22;6658;53.080;7.428;2023-08-21T05:19:06;15.70;99.90
13186;DHT22;6658;53.080;7.428;2023-08-21T05:21:33;15.60;99.90
13186;DHT22;6658;53.080;7.428;2023-08-21T05:23:58;15.50;99.90
13186;DHT22;6658;53.080;7.428;2023-08-21T05:26:24;15.50;99.90
13186;DHT22;6658;53.080;7.428;2023-08-21T05:28:50;15.60;99.90
13186;DHT22;6658;53.080;7.428;2023-08-21T05:31:15;16.00;99.90
13186;DHT22;6658;53.080;7.428;2023-08-21T05:33:41;16.30;99.90
13186;DHT22;6658;53.080;7.428;2023-08-21T05:36:06;16.60;99.90
13186;DHT22;6658;53.080;7.428;2023-08-21T05:38:32;16.90;99.90
13186;DHT22;6658;53.080;7.428;2023-08-21T05:40:58;17.10;99.90
13186;DHT22;6658;53.080;7.428;2023-08-21T05:43:24;17.20;99.90
13186;DHT22;6658;53.080;7.428;2023-08-21T05:45:50;17.30;99.90
13186;DHT22;6658;53.080;7.428;2023-08-21T05:48:15;17.20;99.90
13186;DHT22;6658;53.080;7.428;2023-08-21T05:50:42;17.20;99.90
13186;DHT22;6658;53.080;7.428;2023-08-21T05:53:08;17.40;99.90
13186;DHT22;6658;53.080;7.428;2023-08-21T05:55:36;17.40;99.90
13186;DHT22;6658;53.080;7.428;2023-08-21T05:58:03;17.50;99.90
13186;DHT22;6658;53.080;7.428;2023-08-21T06:00:29;17.60;99.90
13186;DHT22;6658;53.080;7.428;2023-08-21T06:02:54;17.60;99.90
13186;DHT22;6658;53.080;7.428;2023-08-21T06:05:20;17.50;99.90
13186;DHT22;6658;53.080;7.428;2023-08-21T06:07:46;17.60;99.90
13186;DHT22;6658;53.080;7.428;2023-08-21T06:10:12;17.70;99.90
13186;DHT22;6658;53.080;7.428;2023-08-21T06:12:41;17.90;99.90
13186;DHT22;6658;53.080;7.428;2023-08-21T06:15:07;18.00;99.90
13186;DHT22;6658;53.080;7.428;2023-08-21T06:17:34;18.10;99.90
13186;DHT22;6658;53.080;7.428;2023-08-21T06:20:00;18.10;99.90
13186;DHT22;6658;53.080;7.428;2023-08-21T06:22:25;18.20;99.90
13186;DHT22;6658;53.080;7.428;2023-08-21T06:24:51;18.20;99.90
13186;DHT22;6658;53.080;7.428;2023-08-21T06:27:17;18.30;99.90
13186;DHT22;6658;53.080;7.428;2023-08-21T06:29:43;18.30;99.90
13186;DHT22;6658;53.080;7.428;2023-08-21T06:32:08;18.40;99.90
13186;DHT22;6658;53.080;7.428;2023-08-21T06:34:34;18.50;99.90
13186;DHT22;6658;53.080;7.428;2023-08-21T06:37:00;18.60;99.90
13186;DHT22;6658;53.080;7.428;2023-08-21T06:39:26;18.60;99.90
13186;DHT22;6658;53.080;7.428;2023-08-21T06:41:52;18.80;99.90
13186;DHT22;6658;53.080;7.428;2023-08-21T06:44:18;18.90;99.90
13186;DHT22;6658;53.080;7.428;2023-08-21T06:46:44;19.00;99.90
13186;DHT22;6658;53.080;7.428;2023-08-21T06:49:09;19.20;99.90
13186;DHT22;6658;53.080;7.428;2023-08-21T06:51:35;19.60;99.90
13186;DHT22;6658;53.080;7.428;2023-08-21T06:54:01;20.00;99.90
13186;DHT22;6658;53.080;7.428;2023-08-21T06:56:26;20.40;99.90
13186;DHT22;6658;53.080;7.428;2023-08-21T06:58:52;20.60;99.90
13186;DHT22;6658;53.080;7.428;2023-08-21T07:01:21;21.00;99.90
13186;DHT22;6658;53.080;7.428;2023-08-21T07:03:46;21.10;99.90
13186;DHT22;6658;53.080;7.428;2023-08-21T07:06:12;21.50;99.90
13186;DHT22;6658;53.080;7.428;2023-08-21T07:08:38;21.80;99.90
13186;DHT22;6658;53.080;7.428;2023-08-21T07:11:06;22.20;99.90
13186;DHT22;6658;53.080;7.428;2023-08-21T07:13:34;22.50;99.90
13186;DHT22;6658;53.080;7.428;2023-08-21T07:15:59;22.70;99.90
13186;DHT22;6658;53.080;7.428;2023-08-21T07:18:29;22.30;99.90
13186;DHT22;6658;53.080;7.428;2023-08-21T07:20:55;22.40;99.90
13186;DHT22;6658;53.080;7.428;2023-08-21T07:23:20;22.60;99.90
13186;DHT22;6658;53.080;7.428;2023-08-21T07:25:46;23.00;99.90
13186;DHT22;6658;53.080;7.428;2023-08-21T07:28:12;23.40;99.90
13186;DHT22;6658;53.080;7.428;2023-08-21T07:30:38;23.50;99.90
13186;DHT22;6658;53.080;7.428;2023-08-21T07:33:04;23.70;99.90
13186;DHT22;6658;53.080;7.428;2023-08-21T07:35:31;23.40;99.90
13186;DHT22;6658;53.080;7.428;2023-08-21T07:37:57;23.20;99.90
13186;DHT22;6658;53.080;7.428;2023-08-21T07:40:23;23.10;99.90
13186;DHT22;6658;53.080;7.428;2023-08-21T07:42:49;23.20;99.90
13186;DHT22;6658;53.080;7.428;2023-08-21T07:45:14;23.70;99.90
13186;DHT22;6658;53.080;7.428;2023-08-21T07:47:40;24.00;99.90
13186;DHT22;6658;53.080;7.428;2023-08-21T07:50:06;24.40;99.90
13186;DHT22;6658;53.080;7.428;2023-08-21T07:52:33;24.90;99.90
13186;DHT22;6658;53.080;7.428;2023-08-21T07:54:59;25.10;99.90
13186;DHT22;6658;53.080;7.428;2023-08-21T07:57:26;25.40;99.90
13186;DHT22;6658;53.080;7.428;2023-08-21T07:59:52;25.60;99.90
13186;DHT22;6658;53.080;7.428;2023-08-21T08:02:18;25.70;99.90
13186;DHT22;6658;53.080;7.428;2023-08-21T08:04:44;26.00;99.90
13186;DHT22;6658;53.080;7.428;2023-08-21T08:07:09;26.30;99.90
13186;DHT22;6658;53.080;7.428;2023-08-21T08:09:35;26.40;99.90
13186;DHT22;6658;53.080;7.428;2023-08-21T08:12:01;26.60;99.90
13186;DHT22;6658;53.080;7.428;2023-08-21T08:14:27;26.50;99.90
13186;DHT22;6658;53.080;7.428;2023-08-21T08:16:53;26.80;99.90
13186;DHT22;6658;53.080;7.428;2023-08-21T08:19:18;27.20;99.90
13186;DHT22;6658;53.080;7.428;2023-08-21T08:21:44;27.40;99.90
13186;DHT22;6658;53.080;7.428;2023-08-21T08:24:10;27.70;99.90
13186;DHT22;6658;53.080;7.428;2023-08-21T08:26:35;27.80;99.90
13186;DHT22;6658;53.080;7.428;2023-08-21T08:29:01;28.00;99.90
13186;DHT22;6658;53.080;7.428;2023-08-21T08:31:27;28.10;99.90
13186;DHT22;6658;53.080;7.428;2023-08-21T08:33:55;27.70;99.90
13186;DHT22;6658;53.080;7.428;2023-08-21T08:36:21;27.20;99.90
13186;DHT22;6658;53.080;7.428;2023-08-21T08:38:47;27.30;99.90
13186;DHT22;6658;53.080;7.428;2023-08-21T08:41:37;27.60;99.90
13186;DHT22;6658;53.080;7.428;2023-08-21T08:44:04;27.80;99.90
13186;DHT22;6658;53.080;7.428;2023-08-21T08:46:31;27.30;99.90
13186;DHT22;6658;53.080;7.428;2023-08-21T08:48:57;27.30;99.90
13186;DHT22;6658;53.080;7.428;2023-08-21T08:51:28;26.70;99.90
13186;DHT22;6658;53.080;7.428;2023-08-21T08:53:57;26.80;99.90
13186;DHT22;6658;53.080;7.428;2023-08-21T08:56:23;26.50;99.90
13186;DHT22;6658;53.080;7.428;2023-08-21T08:58:49;26.90;99.90
13186;DHT22;6658;53.080;7.428;2023-08-21T09:01:15;27.50;99.90
13186;DHT22;6658;53.080;7.428;2023-08-21T09:03:41;28.40;99.90
13186;DHT22;6658;53.080;7.428;2023-08-21T09:06:06;29.30;99.90
13186;DHT22;6658;53.080;7.428;2023-08-21T09:08:32;30.00;99.90
13186;DHT22;6658;53.080;7.428;2023-08-21T09:11:01;30.30;99.90
13186;DHT22;6658;53.080;7.428;2023-08-21T09:13:28;30.50;99.40
13186;DHT22;6658;53.080;7.428;2023-08-21T09:15:55;30.60;99.40
13186;DHT22;6658;53.080;7.428;2023-08-21T09:18:21;30.90;99.90
13186;DHT22;6658;53.080;7.428;2023-08-21T09:20:47;31.50;98.20
13186;DHT22;6658;53.080;7.428;2023-08-21T09:23:17;31.70;96.50
13186;DHT22;6658;53.080;7.428;2023-08-21T09:25:45;31.30;96.20
13186;DHT22;6658;53.080;7.428;2023-08-21T09:28:14;31.50;96.10
13186;DHT22;6658;53.080;7.428;2023-08-21T09:30:54;32.00;95.80
13186;DHT22;6658;53.080;7.428;2023-08-21T09:33:21;32.30;93.90
13186;DHT22;6658;53.080;7.428;2023-08-21T09:35:49;32.60;91.50
13186;DHT22;6658;53.080;7.428;2023-08-21T09:38:16;33.30;91.70
13186;DHT22;6658;53.080;7.428;2023-08-21T09:40:44;33.00;90.60
13186;DHT22;6658;53.080;7.428;2023-08-21T09:43:15;33.10;90.30
13186;DHT22;6658;53.080;7.428;2023-08-21T09:45:41;33.30;82.20
13186;DHT22;6658;53.080;7.428;2023-08-21T09:48:10;33.50;84.50
13186;DHT22;6658;53.080;7.428;2023-08-21T09:50:37;34.00;84.20
13186;DHT22;6658;53.080;7.428;2023-08-21T09:53:06;33.20;79.90
13186;DHT22;6658;53.080;7.428;2023-08-21T09:55:32;32.60;79.80
13186;DHT22;6658;53.080;7.428;2023-08-21T09:58:02;33.10;83.60
13186;DHT22;6658;53.080;7.428;2023-08-21T10:00:33;34.00;81.30
13186;DHT22;6658;53.080;7.428;2023-08-21T10:03:03;34.20;84.10
13186;DHT22;6658;53.080;7.428;2023-08-21T10:05:31;34.60;82.10
13186;DHT22;6658;53.080;7.428;2023-08-21T10:08:02;35.40;77.80
13186;DHT22;6658;53.080;7.428;2023-08-21T10:10:36;35.90;76.50
13186;DHT22;6658;53.080;7.428;2023-08-21T10:13:03;36.40;76.20
13186;DHT22;6658;53.080;7.428;2023-08-21T10:15:30;36.30;77.40
13186;DHT22;6658;53.080;7.428;2023-08-21T10:17:57;36.50;70.80
13186;DHT22;6658;53.080;7.428;2023-08-21T10:20:25;36.50;70.50
13186;DHT22;6658;53.080;7.428;2023-08-21T10:22:55;36.50;65.90
13186;DHT22;6658;53.080;7.428;2023-08-21T10:25:25;36.30;69.20
13186;DHT22;6658;53.080;7.428;2023-08-21T10:27:56;36.50;67.30
13186;DHT22;6658;53.080;7.428;2023-08-21T10:30:24;36.50;65.90
13186;DHT22;6658;53.080;7.428;2023-08-21T10:32:51;35.40;66.40
13186;DHT22;6658;53.080;7.428;2023-08-21T10:35:22;35.30;69.10
13186;DHT22;6658;53.080;7.428;2023-08-21T10:40:41;35.90;70.10
13186;DHT22;6658;53.080;7.428;2023-08-21T10:46:04;35.40;66.30
13186;DHT22;6658;53.080;7.428;2023-08-21T10:48:29;35.70;68.60
13186;DHT22;6658;53.080;7.428;2023-08-21T10:50:55;35.90;67.20
13186;DHT22;6658;53.080;7.428;2023-08-21T10:53:24;36.60;65.40
13186;DHT22;6658;53.080;7.428;2023-08-21T10:55:56;35.70;62.30
13186;DHT22;6658;53.080;7.428;2023-08-21T10:58:22;35.90;65.80
13186;DHT22;6658;53.080;7.428;2023-08-21T11:00:56;35.80;64.40
13186;DHT22;6658;53.080;7.428;2023-08-21T11:03:22;35.80;60.00
13186;DHT22;6658;53.080;7.428;2023-08-21T11:06:08;35.60;60.70
13186;DHT22;6658;53.080;7.428;2023-08-21T11:08:35;35.40;62.90
13186;DHT22;6658;53.080;7.428;2023-08-21T11:11:05;34.80;63.30
13186;DHT22;6658;53.080;7.428;2023-08-21T11:13:31;33.40;65.90
13186;DHT22;6658;53.080;7.428;2023-08-21T11:16:06;32.50;69.50
13186;DHT22;6658;53.080;7.428;2023-08-21T11:18:33;32.80;72.70
13186;DHT22;6658;53.080;7.428;2023-08-21T11:21:09;33.70;70.50
13186;DHT22;6658;53.080;7.428;2023-08-21T11:23:39;33.80;66.70
13186;DHT22;6658;53.080;7.428;2023-08-21T11:26:10;33.90;65.00
13186;DHT22;6658;53.080;7.428;2023-08-21T11:28:36;34.20;60.50
13186;DHT22;6658;53.080;7.428;2023-08-21T11:31:06;34.10;59.90
13186;DHT22;6658;53.080;7.428;2023-08-21T11:33:32;33.40;60.20
13186;DHT22;6658;53.080;7.428;2023-08-21T11:36:00;32.40;64.70
13186;DHT22;6658;53.080;7.428;2023-08-21T11:38:27;31.30;74.70
13186;DHT22;6658;53.080;7.428;2023-08-21T11:41:02;30.20;76.80
13186;DHT22;6658;53.080;7.428;2023-08-21T11:43:40;29.40;85.10
13186;DHT22;6658;53.080;7.428;2023-08-21T11:46:08;28.80;86.80
13186;DHT22;6658;53.080;7.428;2023-08-21T11:48:37;28.40;89.70
13186;DHT22;6658;53.080;7.428;2023-08-21T11:51:03;28.20;88.40
13186;DHT22;6658;53.080;7.428;2023-08-21T11:53:35;28.00;90.20
13186;DHT22;6658;53.080;7.428;2023-08-21T11:56:01;27.90;88.90
13186;DHT22;6658;53.080;7.428;2023-08-21T11:58:27;27.80;91.80
13186;DHT22;6658;53.080;7.428;2023-08-21T12:01:03;27.60;87.90
13186;DHT22;6658;53.080;7.428;2023-08-21T12:03:29;27.50;90.50
13186;DHT22;6658;53.080;7.428;2023-08-21T12:05:55;27.40;92.80
13186;DHT22;6658;53.080;7.428;2023-08-21T12:08:21;27.40;93.00
13186;DHT22;6658;53.080;7.428;2023-08-21T12:10:50;27.40;93.20
13186;DHT22;6658;53.080;7.428;2023-08-21T12:13:18;27.20;93.10
13186;DHT22;6658;53.080;7.428;2023-08-21T12:15:43;27.20;93.30
13186;DHT22;6658;53.080;7.428;2023-08-21T12:18:09;27.30;93.60
13186;DHT22;6658;53.080;7.428;2023-08-21T12:20:35;27.30;93.10
13186;DHT22;6658;53.080;7.428;2023-08-21T12:23:01;27.30;92.20
13186;DHT22;6658;53.080;7.428;2023-08-21T12:25:28;26.70;92.10
13186;DHT22;6658;53.080;7.428;2023-08-21T12:27:57;26.80;94.80
13186;DHT22;6658;53.080;7.428;2023-08-21T12:30:23;26.80;92.20
13186;DHT22;6658;53.080;7.428;2023-08-21T12:32:48;26.60;92.90
13186;DHT22;6658;53.080;7.428;2023-08-21T12:35:15;26.60;93.30
13186;DHT22;6658;53.080;7.428;2023-08-21T12:37:41;26.70;92.60
13186;DHT22;6658;53.080;7.428;2023-08-21T12:40:07;26.80;93.10
13186;DHT22;6658;53.080;7.428;2023-08-21T12:42:34;27.00;92.70
13186;DHT22;6658;53.080;7.428;2023-08-21T12:44:59;27.10;93.10
13186;DHT22;6658;53.080;7.428;2023-08-21T12:47:25;27.30;93.70
13186;DHT22;6658;53.080;7.428;2023-08-21T12:49:52;27.10;91.10
13186;DHT22;6658;53.080;7.428;2023-08-21T12:52:18;27.10;92.30
13186;DHT22;6658;53.080;7.428;2023-08-21T12:54:43;27.10;91.60
13186;DHT22;6658;53.080;7.428;2023-08-21T12:57:09;26.90;92.30
13186;DHT22;6658;53.080;7.428;2023-08-21T12:59:37;26.70;92.30
13186;DHT22;6658;53.080;7.428;2023-08-21T13:02:03;26.40;93.70
13186;DHT22;6658;53.080;7.428;2023-08-21T13:04:29;26.30;94.00
13186;DHT22;6658;53.080;7.428;2023-08-21T13:06:55;26.10;93.20
13186;DHT22;6658;53.080;7.428;2023-08-21T13:09:23;26.20;93.50
13186;DHT22;6658;53.080;7.428;2023-08-21T13:11:54;26.50;94.40
13186;DHT22;6658;53.080;7.428;2023-08-21T13:14:19;26.60;93.30
13186;DHT22;6658;53.080;7.428;2023-08-21T13:16:45;26.70;92.50
13186;DHT22;6658;53.080;7.428;2023-08-21T13:19:11;26.70;92.40
13186;DHT22;6658;53.080;7.428;2023-08-21T13:21:37;26.60;93.00
13186;DHT22;6658;53.080;7.428;2023-08-21T13:24:03;26.60;93.40
13186;DHT22;6658;53.080;7.428;2023-08-21T13:26:30;26.60;94.90
13186;DHT22;6658;53.080;7.428;2023-08-21T13:28:57;26.50;94.20
13186;DHT22;6658;53.080;7.428;2023-08-21T13:31:22;26.70;93.90
13186;DHT22;6658;53.080;7.428;2023-08-21T13:33:50;26.90;93.90
13186;DHT22;6658;53.080;7.428;2023-08-21T13:36:16;27.10;93.60
13186;DHT22;6658;53.080;7.428;2023-08-21T13:38:44;27.20;95.10
13186;DHT22;6658;53.080;7.428;2023-08-21T13:41:10;27.30;93.60
13186;DHT22;6658;53.080;7.428;2023-08-21T13:43:36;27.20;93.10
13186;DHT22;6658;53.080;7.428;2023-08-21T13:46:03;26.80;92.90
13186;DHT22;6658;53.080;7.428;2023-08-21T13:48:32;26.70;92.80
13186;DHT22;6658;53.080;7.428;2023-08-21T13:50:58;26.60;93.50
13186;DHT22;6658;53.080;7.428;2023-08-21T13:53:23;26.60;92.50
13186;DHT22;6658;53.080;7.428;2023-08-21T13:55:52;26.60;92.40
13186;DHT22;6658;53.080;7.428;2023-08-21T13:58:18;26.70;93.50
13186;DHT22;6658;53.080;7.428;2023-08-21T14:00:44;26.80;93.50
13186;DHT22;6658;53.080;7.428;2023-08-21T14:03:10;26.90;93.60
13186;DHT22;6658;53.080;7.428;2023-08-21T14:05:36;26.90;94.00
13186;DHT22;6658;53.080;7.428;2023-08-21T14:08:02;27.00;93.80
13186;DHT22;6658;53.080;7.428;2023-08-21T14:10:28;27.10;93.50
13186;DHT22;6658;53.080;7.428;2023-08-21T14:12:56;27.10;92.10
13186;DHT22;6658;53.080;7.428;2023-08-21T14:15:22;27.20;92.70
13186;DHT22;6658;53.080;7.428;2023-08-21T14:17:48;27.20;92.30
13186;DHT22;6658;53.080;7.428;2023-08-21T14:20:15;27.30;93.80
13186;DHT22;6658;53.080;7.428;2023-08-21T14:22:41;27.30;92.70
13186;DHT22;6658;53.080;7.428;2023-08-21T14:25:07;27.30;92.90
13186;DHT22;6658;53.080;7.428;2023-08-21T14:27:32;27.20;92.80
13186;DHT22;6658;53.080;7.428;2023-08-21T14:29:59;27.20;93.30
13186;DHT22;6658;53.080;7.428;2023-08-21T14:32:24;27.20;93.90
13186;DHT22;6658;53.080;7.428;2023-08-21T14:34:50;27.20;93.80
13186;DHT22;6658;53.080;7.428;2023-08-21T14:37:18;26.90;93.40
13186;DHT22;6658;53.080;7.428;2023-08-21T14:39:44;26.80;92.90
13186;DHT22;6658;53.080;7.428;2023-08-21T14:42:10;26.80;92.70
13186;DHT22;6658;53.080;7.428;2023-08-21T14:44:36;26.80;91.20
13186;DHT22;6658;53.080;7.428;2023-08-21T14:47:02;26.80;90.10
13186;DHT22;6658;53.080;7.428;2023-08-21T14:49:28;26.80;92.70
13186;DHT22;6658;53.080;7.428;2023-08-21T14:51:54;26.90;94.20
13186;DHT22;6658;53.080;7.428;2023-08-21T14:54:20;27.00;92.80
13186;DHT22;6658;53.080;7.428;2023-08-21T14:56:46;27.20;92.20
13186;DHT22;6658;53.080;7.428;2023-08-21T14:59:13;27.30;91.70
13186;DHT22;6658;53.080;7.428;2023-08-21T15:01:40;27.30;91.80
13186;DHT22;6658;53.080;7.428;2023-08-21T15:04:07;27.30;92.20
13186;DHT22;6658;53.080;7.428;2023-08-21T15:06:33;27.30;93.20
13186;DHT22;6658;53.080;7.428;2023-08-21T15:08:59;27.20;93.10
13186;DHT22;6658;53.080;7.428;2023-08-21T15:11:25;27.20;91.40
13186;DHT22;6658;53.080;7.428;2023-08-21T15:13:51;27.20;91.90
13186;DHT22;6658;53.080;7.428;2023-08-21T15:16:16;27.20;91.70
13186;DHT22;6658;53.080;7.428;2023-08-21T15:18:42;27.10;91.00
13186;DHT22;6658;53.080;7.428;2023-08-21T15:21:08;27.00;92.30
13186;DHT22;6658;53.080;7.428;2023-08-21T15:23:33;26.90;91.30
13186;DHT22;6658;53.080;7.428;2023-08-21T15:25:59;26.80;91.50
13186;DHT22;6658;53.080;7.428;2023-08-21T15:28:25;26.80;94.00
13186;DHT22;6658;53.080;7.428;2023-08-21T15:30:50;26.60;93.10
13186;DHT22;6658;53.080;7.428;2023-08-21T15:33:16;26.60;92.50
13186;DHT22;6658;53.080;7.428;2023-08-21T15:35:42;26.50;92.40
13186;DHT22;6658;53.080;7.428;2023-08-21T15:38:07;26.40;92.30
13186;DHT22;6658;53.080;7.428;2023-08-21T15:40:33;26.40;92.70
13186;DHT22;6658;53.080;7.428;2023-08-21T15:43:02;26.20;93.10
13186;DHT22;6658;53.080;7.428;2023-08-21T15:45:28;26.10;93.60
13186;DHT22;6658;53.080;7.428;2023-08-21T15:47:53;26.10;93.20